Time;durP1;ratioP1;P1;durP2;ratioP2;P2;SDS_P1;SDS_P2;PMS_P1;PMS_P2;Temp;Humidity;BMP_temperature;BMP_pressure;BME280_temperature;BME280_humidity;BME280_pressure;Samples;Min_cycle;Max_cycle;Signal;HPM_P1;HPM_P2
2022/04/29 00:00:31;;;;;;;;;;;10.20;50.00;;;;;;5112884;28;20043;-74
2022/04/29 00:02:57;;;;;;;7.50;3.50;;;10.30;49.40;;;;;;5110805;28;20288;-73
2022/04/29 00:05:25;;;;;;;7.78;3.65;;;10.30;49.80;;;;;;5090992;28;20545;-74
2022/04/29 00:07:52;;;;;;;10.05;3.70;;;10.30;49.80;;;;;;5091064;28;20048;-73
2022/04/29 00:10:19;;;;;;;7.68;3.67;;;10.30;49.30;;;;;;5073768;28;20545;-74
2022/04/29 00:12:48;;;;;;;7.50;3.40;;;10.30;49.50;;;;;;5074213;28;20028;-72
2022/04/29 00:15:16;;;;;;;7.00;3.65;;;10.30;50.00;;;;;;5090892;28;20534;-73
2022/04/29 00:17:43;;;;;;;7.53;3.78;;;10.30;50.10;;;;;;5074235;28;20032;-73
2022/04/29 00:20:11;;;;;;;7.20;3.25;;;10.30;50.30;;;;;;5108894;28;20032;-74
2022/04/29 00:22:38;;;;;;;6.55;3.22;;;10.30;50.30;;;;;;5094359;28;20537;-73
2022/04/29 00:25:06;;;;;;;7.50;3.55;;;10.30;50.30;;;;;;5111214;28;20111;-73
2022/04/29 00:27:33;;;;;;;6.43;3.40;;;10.20;50.20;;;;;;5110884;28;20545;-73
2022/04/29 00:29:59;;;;;;;7.68;2.97;;;10.20;49.80;;;;;;5111277;28;20100;-74
2022/04/29 00:32:25;;;;;;;5.85;3.30;;;10.30;51.30;;;;;;5093773;28;20055;-74
2022/04/29 00:34:51;;;;;;;7.07;3.55;;;10.20;50.40;;;;;;5093587;28;20121;-73
2022/04/29 00:37:18;;;;;;;6.35;3.30;;;10.30;50.50;;;;;;5110900;28;20032;-73
2022/04/29 00:39:44;;;;;;;6.45;3.40;;;10.20;50.30;;;;;;5111614;28;20544;-74
2022/04/29 00:42:30;;;;;;;7.70;3.60;;;10.20;49.80;;;;;;5110716;28;20031;-74
2022/04/29 00:44:56;;;;;;;7.03;3.40;;;10.30;50.50;;;;;;5111219;28;20491;-72
2022/04/29 00:47:22;;;;;;;7.30;3.53;;;10.30;50.30;;;;;;5111939;28;20110;-73
2022/04/29 00:49:49;;;;;;;7.00;3.20;;;10.20;50.10;;;;;;5110238;28;20044;-74
2022/04/29 00:52:18;;;;;;;7.60;3.47;;;10.20;50.10;;;;;;5111233;28;20484;-74
2022/04/29 00:55:10;;;;;;;7.28;3.45;;;10.20;50.10;;;;;;5114863;28;20039;-73
2022/04/29 00:58:17;;;;;;;5.68;3.03;;;10.20;50.20;;;;;;5115947;28;20035;-73
2022/04/29 01:00:44;;;;;;;7.05;3.63;;;10.20;50.10;;;;;;5115479;28;20442;-73
2022/04/29 01:03:30;;;;;;;7.10;3.00;;;10.20;49.50;;;;;;5097521;28;20127;-72
2022/04/29 01:05:56;;;;;;;6.50;3.33;;;10.20;50.00;;;;;;5114218;28;20082;-74
2022/04/29 01:08:23;;;;;;;11.25;3.63;;;10.20;50.00;;;;;;5115936;28;20107;-73
2022/04/29 01:10:49;;;;;;;6.85;3.20;;;10.20;50.00;;;;;;5115216;28;20462;-74
2022/04/29 01:13:18;;;;;;;6.30;3.33;;;10.10;50.10;;;;;;5114467;28;20043;-73
2022/04/29 01:15:45;;;;;;;6.05;2.88;;;10.20;50.30;;;;;;5096961;28;20392;-73
2022/04/29 01:18:14;;;;;;;6.65;2.80;;;10.10;50.30;;;;;;5115682;28;20099;-74
2022/04/29 01:20:41;;;;;;;12.88;3.70;;;10.10;50.30;;;;;;5113060;28;20085;-74
2022/04/29 01:23:10;;;;;;;6.85;3.63;;;10.10;50.40;;;;;;5097257;28;20373;-73
2022/04/29 01:25:38;;;;;;;6.32;2.97;;;10.10;50.40;;;;;;5113729;28;20028;-74
2022/04/29 01:28:05;;;;;;;7.63;3.15;;;10.10;50.40;;;;;;5113936;28;20526;-74
2022/04/29 01:30:32;;;;;;;6.72;3.30;;;10.00;50.40;;;;;;5113655;28;20043;-72
2022/04/29 01:33:00;;;;;;;7.03;3.47;;;10.00;50.00;;;;;;5114085;28;20032;-74
2022/04/29 01:35:27;;;;;;;8.00;3.53;;;10.00;50.30;;;;;;5113901;28;20040;-73
2022/04/29 01:37:53;;;;;;;7.82;3.63;;;10.10;50.50;;;;;;5096753;28;20498;-73
2022/04/29 01:40:19;;;;;;;5.38;3.00;;;10.10;50.40;;;;;;5096462;28;20510;-73
2022/04/29 01:42:45;;;;;;;7.00;3.55;;;10.10;50.40;;;;;;5113984;28;20043;-74
2022/04/29 01:45:12;;;;;;;;;;;10.00;49.70;;;;;;5113945;28;20039;-74
2022/04/29 01:47:38;;;;;;;8.35;2.97;;;10.00;49.70;;;;;;5115019;28;20006;-74
2022/04/29 01:50:05;;;;;;;6.88;3.90;;;10.00;49.80;;;;;;5112620;28;20035;-73
2022/04/29 01:52:31;;;;;;;7.57;3.47;;;10.10;49.40;;;;;;5113620;28;20042;-73
2022/04/29 01:54:57;;;;;;;;;;;10.00;49.70;;;;;;5114284;28;20108;-73
2022/04/29 01:57:24;;;;;;;6.95;3.03;;;10.10;49.80;;;;;;5113058;28;20295;-74
2022/04/29 01:59:50;;;;;;;6.65;3.28;;;10.10;49.90;;;;;;5113465;28;20112;-74
2022/04/29 02:02:17;;;;;;;7.95;4.72;;;10.10;49.90;;;;;;5114225;28;20028;-73
2022/04/29 02:04:43;;;;;;;7.35;3.20;;;10.10;49.80;;;;;;5113575;28;20507;-73
2022/04/29 02:07:09;;;;;;;6.70;3.47;;;10.10;49.80;;;;;;5112920;28;20082;-73
2022/04/29 02:09:36;;;;;;;8.52;3.50;;;10.10;49.70;;;;;;5114474;28;20077;-73
2022/04/29 02:12:05;;;;;;;7.43;3.40;;;10.10;49.70;;;;;;5112700;28;20047;-74
2022/04/29 02:14:50;;;;;;;5.82;3.10;;;10.00;49.10;;;;;;5113295;28;20377;-74
2022/04/29 02:17:17;;;;;;;6.70;3.50;;;10.00;49.60;;;;;;5112702;28;20036;-73
2022/04/29 02:19:43;;;;;;;7.28;3.00;;;10.00;49.60;;;;;;5113461;28;20039;-74
2022/04/29 02:22:09;;;;;;;7.07;3.63;;;10.00;49.40;;;;;;5112577;28;20110;-74
2022/04/29 02:24:37;;;;;;;8.02;3.90;;;10.00;48.90;;;;;;5095918;28;20038;-73
2022/04/29 02:27:06;;;;;;;6.93;3.70;;;9.90;49.30;;;;;;5095429;28;20134;-73
2022/04/29 02:29:32;;;;;;;6.68;3.40;;;9.90;49.30;;;;;;5112949;28;20035;-73
2022/04/29 02:31:58;;;;;;;8.40;3.03;;;10.00;49.50;;;;;;5112515;28;20078;-73
2022/04/29 02:34:26;;;;;;;7.72;3.42;;;9.90;48.90;;;;;;5111798;28;20043;-74
2022/04/29 02:36:52;;;;;;;7.82;3.53;;;9.90;49.40;;;;;;5112394;28;20036;-74
2022/04/29 02:39:19;;;;;;;7.22;3.17;;;9.90;49.40;;;;;;5112980;28;20028;-73
2022/04/29 02:41:46;;;;;;;9.18;3.40;;;9.90;48.80;;;;;;5113557;28;20044;-73
2022/04/29 02:44:13;;;;;;;7.45;3.38;;;9.90;49.00;;;;;;5112804;28;20031;-73
2022/04/29 02:49:26;;;;;;;6.97;3.08;;;9.90;48.90;;;;;;5111859;28;20040;-73
2022/04/29 02:51:52;;;;;;;6.72;3.22;;;10.00;48.40;;;;;;5111954;28;20035;-74
2022/04/29 02:54:18;;;;;;;6.25;3.08;;;10.00;48.90;;;;;;5095642;28;20054;-73
2022/04/29 02:56:44;;;;;;;7.50;3.33;;;10.00;49.00;;;;;;5113282;28;20541;-73
2022/04/29 02:59:10;;;;;;;7.40;3.20;;;9.90;49.10;;;;;;5112485;28;20118;-73
2022/04/29 03:01:37;;;;;;;7.72;3.78;;;9.90;49.10;;;;;;5111979;28;20147;-73
2022/04/29 03:04:03;;;;;;;8.93;3.72;;;9.90;49.20;;;;;;5095392;28;20034;-74
2022/04/29 03:06:29;;;;;;;;;;;9.90;49.10;;;;;;5111439;28;20035;-73
2022/04/29 03:08:56;;;;;;;5.95;2.70;;;9.90;48.70;;;;;;5095329;28;19968;-73
2022/04/29 03:11:23;;;;;;;6.32;3.25;;;9.90;48.70;;;;;;5111649;28;20496;-74
2022/04/29 03:13:50;;;;;;;6.13;3.08;;;10.00;48.80;;;;;;5113796;28;20472;-73
2022/04/29 03:16:16;;;;;;;7.70;3.10;;;10.00;48.80;;;;;;5111144;28;20408;-74
2022/04/29 03:18:44;;;;;;;5.78;2.88;;;10.00;49.70;;;;;;5112204;28;20400;-73
2022/04/29 03:21:10;;;;;;;6.80;3.00;;;10.00;48.80;;;;;;5111992;28;20118;-74
2022/04/29 03:23:37;;;;;;;6.03;3.00;;;10.00;48.90;;;;;;5113479;28;20435;-74
2022/04/29 03:26:23;;;;;;;10.18;3.50;;;10.00;48.40;;;;;;5112804;28;20032;-74
2022/04/29 03:28:49;;;;;;;6.60;2.85;;;10.10;49.20;;;;;;5113143;28;20388;-73
2022/04/29 03:31:16;;;;;;;6.53;3.05;;;10.00;49.00;;;;;;5112664;28;20505;-73
2022/04/29 03:33:42;;;;;;;6.63;3.08;;;10.00;49.00;;;;;;5111991;28;20046;-73
2022/04/29 03:36:08;;;;;;;6.78;3.45;;;10.00;49.10;;;;;;5111619;28;20042;-73
2022/04/29 03:38:38;;;;;;;6.72;3.67;;;10.00;49.00;;;;;;5113362;28;20040;-73
2022/04/29 03:41:04;;;;;;;9.00;3.15;;;10.00;48.50;;;;;;5111462;28;20036;-73
2022/04/29 03:43:31;;;;;;;6.25;3.00;;;10.00;49.00;;;;;;5094865;28;20139;-72
2022/04/29 03:45:58;;;;;;;7.35;3.10;;;10.00;49.00;;;;;;5111389;28;20111;-73
2022/04/29 03:48:24;;;;;;;8.10;3.20;;;10.00;48.70;;;;;;5111779;28;20036;-72
2022/04/29 03:50:50;;;;;;;;;;;10.00;48.70;;;;;;5110896;28;20043;-73
2022/04/29 03:53:17;;;;;;;7.60;3.67;;;10.00;48.90;;;;;;5111681;28;19919;-73
2022/04/29 03:55:43;;;;;;;7.85;3.35;;;10.00;49.10;;;;;;5111446;28;20040;-73
2022/04/29 03:58:09;;;;;;;;;;;9.90;49.00;;;;;;5112218;28;20514;-72
2022/04/29 04:00:35;;;;;;;5.95;3.03;;;10.00;48.00;;;;;;5111232;28;19916;-73
2022/04/29 04:03:06;;;;;;;7.60;3.08;;;10.10;48.60;;;;;;5111655;28;20059;-73
2022/04/29 04:05:33;;;;;;;7.03;3.13;;;10.10;48.50;;;;;;5111525;28;20066;-73
2022/04/29 04:08:00;;;;;;;8.30;3.13;;;10.10;48.50;;;;;;5111609;28;20106;-73
2022/04/29 04:10:26;;;;;;;8.00;3.58;;;10.20;49.10;;;;;;5111084;28;20032;-74
2022/04/29 04:12:53;;;;;;;7.03;3.15;;;10.20;48.60;;;;;;5112796;28;20035;-74
2022/04/29 04:15:39;;;;;;;7.75;3.03;;;10.30;48.30;;;;;;5111114;28;20038;-72
2022/04/29 04:18:05;;;;;;;7.95;3.10;;;10.30;48.30;;;;;;5111387;28;20490;-74
2022/04/29 04:20:31;;;;;;;7.07;3.30;;;10.40;48.20;;;;;;5111316;28;20572;-73
2022/04/29 04:22:57;;;;;;;9.02;3.33;;;10.50;48.20;;;;;;5111345;28;20035;-72
2022/04/29 04:25:23;;;;;;;5.47;3.00;;;10.40;48.20;;;;;;5112252;28;20032;-73
2022/04/29 04:27:49;;;;;;;6.15;3.45;;;10.50;48.20;;;;;;5112587;28;20075;-72
2022/04/29 04:30:16;;;;;;;8.27;3.40;;;10.60;48.40;;;;;;5097624;28;20040;-72
2022/04/29 04:32:42;;;;;;;7.47;2.92;;;10.60;47.90;;;;;;5115242;28;20035;-74
2022/04/29 04:35:08;;;;;;;10.57;2.90;;;10.70;47.80;;;;;;5097732;28;20126;-73
2022/04/29 04:37:35;;;;;;;7.15;2.97;;;10.70;47.10;;;;;;5114485;28;20031;-73
2022/04/29 04:40:03;;;;;;;5.47;3.05;;;10.80;47.20;;;;;;5115065;28;20110;-73
2022/04/29 04:42:29;;;;;;;9.57;3.13;;;10.80;46.80;;;;;;5114678;28;20457;-73
2022/04/29 04:44:55;;;;;;;11.60;4.43;;;10.90;46.30;;;;;;5115109;28;20039;-73
2022/04/29 04:47:22;;;;;;;7.55;3.42;;;11.00;46.90;;;;;;5114464;28;20088;-73
2022/04/29 04:49:48;;;;;;;8.35;3.13;;;11.00;47.00;;;;;;5116151;28;20032;-73
2022/04/29 04:52:15;;;;;;;10.88;4.07;;;11.00;47.10;;;;;;5113510;28;20035;-74
2022/04/29 04:54:41;;;;;;;6.85;3.20;;;11.10;47.20;;;;;;5116115;28;20040;-72
2022/04/29 04:57:07;;;;;;;;;;;11.10;46.30;;;;;;5097793;28;20055;-74
2022/04/29 04:59:34;;;;;;;9.88;3.22;;;11.20;46.10;;;;;;5114758;28;19923;-72
2022/04/29 05:02:00;;;;;;;5.95;2.72;;;11.20;46.30;;;;;;5115485;28;20031;-73
2022/04/29 05:04:26;;;;;;;;;;;11.30;46.20;;;;;;5115132;28;20044;-74
2022/04/29 05:06:52;;;;;;;7.97;3.42;;;11.40;46.10;;;;;;5113336;28;19919;-73
2022/04/29 05:09:19;;;;;;;6.38;2.92;;;11.40;46.10;;;;;;5114737;28;20040;-74
2022/04/29 05:11:45;;;;;;;11.05;3.45;;;11.40;46.40;;;;;;5113987;28;20077;-72
2022/04/29 05:14:11;;;;;;;;;;;11.50;46.40;;;;;;5115193;28;20496;-73
2022/04/29 05:16:37;;;;;;;6.85;3.20;;;11.50;46.20;;;;;;5114113;28;19945;-73
2022/04/29 05:19:03;;;;;;;7.40;3.10;;;11.60;46.40;;;;;;5097476;28;20119;-73
2022/04/29 05:21:30;;;;;;;5.97;2.95;;;11.60;46.50;;;;;;5113122;28;20036;-73
2022/04/29 05:23:57;;;;;;;6.47;3.28;;;11.60;46.60;;;;;;5097576;28;20039;-74
2022/04/29 05:26:23;;;;;;;8.05;3.22;;;11.70;46.80;;;;;;5115101;27;20059;-74
2022/04/29 05:28:49;;;;;;;7.78;3.03;;;11.70;46.80;;;;;;5115294;28;20055;-73
2022/04/29 05:31:16;;;;;;;9.23;3.25;;;11.80;46.50;;;;;;5114978;28;20103;-73
2022/04/29 05:33:42;;;;;;;9.25;5.22;;;11.80;46.20;;;;;;5114274;28;20425;-74
2022/04/29 05:36:09;;;;;;;;;;;11.90;46.00;;;;;;5113198;28;20040;-73
2022/04/29 05:44:09;;;;;;;11.63;4.78;;;12.10;45.70;;;;;;5114008;28;20051;-73
2022/04/29 05:46:35;;;;;;;7.68;3.15;;;12.20;45.40;;;;;;5113374;28;20080;-74
2022/04/29 05:49:02;;;;;;;;;;;12.30;45.70;;;;;;5115936;28;20110;-73
2022/04/29 05:51:29;;;;;;;7.18;3.20;;;12.40;45.10;;;;;;5091701;28;19920;-74
2022/04/29 05:53:55;;;;;;;;;;;12.50;44.30;;;;;;5095570;28;20043;-73
2022/04/29 05:56:21;;;;;;;6.50;3.17;;;12.60;44.80;;;;;;5094028;28;20441;-74
2022/04/29 05:58:47;;;;;;;;;;;12.60;44.70;;;;;;5095376;28;20067;-73
2022/04/29 06:01:13;;;;;;;7.82;2.90;;;12.70;44.60;;;;;;5093963;28;19916;-73
2022/04/29 06:03:40;;;;;;;11.23;3.38;;;12.80;44.30;;;;;;5093265;28;20533;-74
2022/04/29 06:06:06;;;;;;;6.43;3.30;;;12.90;44.40;;;;;;5092858;28;20029;-73
2022/04/29 06:08:32;;;;;;;9.90;3.88;;;13.00;44.00;;;;;;5096355;28;20042;-73
2022/04/29 06:10:58;;;;;;;8.90;3.22;;;13.10;43.90;;;;;;5112951;28;20391;-73
2022/04/29 06:13:24;;;;;;;8.30;3.60;;;13.20;43.60;;;;;;5114805;28;20114;-74
2022/04/29 06:15:50;;;;;;;9.05;3.83;;;13.30;43.40;;;;;;5112989;28;20070;-73
2022/04/29 06:18:16;;;;;;;8.25;3.30;;;13.40;43.30;;;;;;5113320;28;20035;-74
2022/04/29 06:20:43;;;;;;;11.77;4.55;;;13.40;42.90;;;;;;5112872;28;20071;-74
2022/04/29 06:23:09;;;;;;;;;;;13.50;42.90;;;;;;5114177;28;20096;-74
2022/04/29 06:25:35;;;;;;;9.35;3.78;;;13.60;42.80;;;;;;5112719;28;20371;-74
2022/04/29 06:28:01;;;;;;;12.77;4.00;;;13.70;42.70;;;;;;5112812;28;20071;-74
2022/04/29 06:30:27;;;;;;;7.97;3.65;;;13.80;42.50;;;;;;5112609;28;20148;-74
2022/04/29 06:32:54;;;;;;;8.57;4.07;;;13.80;42.10;;;;;;5112987;28;20106;-74
2022/04/29 06:35:21;;;;;;;8.23;4.05;;;13.80;42.10;;;;;;5087597;28;20040;-74
2022/04/29 06:37:48;;;;;;;8.02;3.75;;;13.90;41.30;;;;;;5104844;28;20084;-73
2022/04/29 06:40:14;;;;;;;7.82;4.03;;;13.90;41.60;;;;;;5095331;28;20039;-74
2022/04/29 06:42:59;;;;;;;8.93;3.55;;;13.90;42.30;;;;;;5114035;28;20062;-74
2022/04/29 06:45:25;;;;;;;7.78;3.78;;;14.10;42.40;;;;;;5113524;28;20089;-73
2022/04/29 06:47:51;;;;;;;7.82;3.70;;;14.30;42.20;;;;;;5112519;28;20027;-74
2022/04/29 06:50:18;;;;;;;8.98;3.78;;;14.50;41.90;;;;;;5112660;28;20036;-74
2022/04/29 06:52:44;;;;;;;;;;;14.60;41.80;;;;;;5112020;28;20035;-73
2022/04/29 06:55:10;;;;;;;9.55;4.10;;;14.80;41.60;;;;;;5095103;28;19915;-73
2022/04/29 06:57:36;;;;;;;;;;;15.00;40.70;;;;;;5113037;28;20046;-74
2022/04/29 07:00:05;;;;;;;10.02;3.85;;;15.20;41.00;;;;;;5110454;28;19920;-74
2022/04/29 07:02:34;;;;;;;7.13;3.70;;;15.40;39.90;;;;;;5092421;28;20028;-75
2022/04/29 07:05:02;;;;;;;8.77;3.70;;;15.60;39.70;;;;;;5091945;28;20488;-74
2022/04/29 07:07:28;;;;;;;7.03;3.60;;;15.50;38.90;;;;;;5099271;28;20384;-74
2022/04/29 07:09:55;;;;;;;8.10;3.45;;;15.40;39.60;;;;;;5112343;28;20043;-74
2022/04/29 07:12:22;;;;;;;7.13;3.42;;;15.30;39.80;;;;;;5094723;28;20040;-73
2022/04/29 07:14:50;;;;;;;;;;;15.30;40.90;;;;;;5112868;28;20111;-74
2022/04/29 07:17:17;;;;;;;6.97;3.83;;;15.30;39.80;;;;;;5112928;28;20288;-74
2022/04/29 07:19:43;;;;;;;6.50;3.45;;;15.60;39.90;;;;;;5112170;28;20437;-73
2022/04/29 07:22:09;;;;;;;7.15;3.20;;;16.00;39.80;;;;;;5093755;28;20043;-75
2022/04/29 07:24:35;;;;;;;11.13;3.83;;;16.40;38.90;;;;;;5095013;28;20070;-74
2022/04/29 07:27:01;;;;;;;6.85;3.40;;;16.70;38.70;;;;;;5111550;28;20059;-74
2022/04/29 07:29:27;;;;;;;6.90;3.10;;;16.90;37.90;;;;;;5111858;28;20052;-73
2022/04/29 07:31:54;;;;;;;12.23;3.60;;;17.20;37.30;;;;;;5111568;28;20059;-74
2022/04/29 07:41:44;;;;;;;5.95;2.70;;;17.40;37.60;;;;;;5112124;28;20040;-74
2022/04/29 07:42:35;;;;;;;6.28;3.28;;;18.50;35.90;;;;;;5112084;28;20043;-74
2022/04/29 07:45:02;;;;;;;7.93;3.78;;;18.90;35.60;;;;;;5111807;28;20122;-74
2022/04/29 07:47:28;;;;;;;;;;;19.10;35.20;;;;;;5094952;28;20036;-74
2022/04/29 07:49:54;;;;;;;7.05;3.38;;;19.50;36.50;;;;;;5111814;28;20415;-76
2022/04/29 07:52:20;;;;;;;7.10;3.28;;;19.90;34.30;;;;;;5110272;28;20063;-75
2022/04/29 07:54:46;;;;;;;8.18;2.88;;;20.30;33.90;;;;;;5113050;28;20040;-74
2022/04/29 07:57:12;;;;;;;8.07;3.35;;;20.70;33.20;;;;;;5112583;28;20111;-74
2022/04/29 07:59:38;;;;;;;;;;;21.10;32.80;;;;;;5112254;28;20032;-76
2022/04/29 08:02:06;;;;;;;7.43;3.40;;;21.50;34.30;;;;;;5114619;28;19915;-75
2022/04/29 08:04:33;;;;;;;7.18;3.60;;;21.90;31.00;;;;;;5115918;28;20033;-76
2022/04/29 08:07:02;;;;;;;7.28;3.40;;;22.20;30.50;;;;;;5115983;28;20093;-76
2022/04/29 08:09:28;;;;;;;7.00;3.55;;;22.70;30.30;;;;;;5115522;28;20039;-74
2022/04/29 08:11:55;;;;;;;7.72;3.50;;;23.00;29.90;;;;;;5116448;28;20035;-74
2022/04/29 08:14:26;;;;;;;6.78;3.53;;;23.50;29.50;;;;;;5116732;28;20084;-76
2022/04/29 08:16:52;;;;;;;8.57;3.58;;;23.80;28.20;;;;;;5115247;28;20093;-74
2022/04/29 08:19:18;;;;;;;7.88;3.47;;;24.20;27.90;;;;;;5117307;28;20058;-75
2022/04/29 08:21:45;;;;;;;7.75;3.20;;;24.60;27.40;;;;;;5116434;28;20046;-75
2022/04/29 08:24:12;;;;;;;6.97;3.50;;;25.00;27.00;;;;;;5114551;28;20118;-75
2022/04/29 08:26:38;;;;;;;6.65;3.70;;;25.50;25.70;;;;;;5098031;28;20031;-76
2022/04/29 08:29:04;;;;;;;6.82;3.03;;;25.80;25.40;;;;;;5115180;28;20064;-76
2022/04/29 08:31:30;;;;;;;9.45;3.67;;;26.10;25.00;;;;;;5114750;28;20043;-76
2022/04/29 08:33:56;;;;;;;7.03;3.70;;;26.60;24.60;;;;;;5115501;28;20027;-76
2022/04/29 08:36:22;;;;;;;8.13;3.50;;;27.00;24.90;;;;;;5116077;28;20470;-76
2022/04/29 08:38:49;;;;;;;6.95;3.50;;;27.60;24.70;;;;;;5114053;28;20035;-76
2022/04/29 08:41:19;;;;;;;6.63;3.53;;;27.90;22.90;;;;;;5115981;27;20055;-75
2022/04/29 08:43:49;;;;;;;8.13;3.42;;;28.30;22.60;;;;;;5115279;28;20484;-75
2022/04/29 08:46:20;;;;;;;7.65;3.55;;;28.70;22.40;;;;;;5114692;28;20031;-74
2022/04/29 08:48:48;;;;;;;10.25;3.60;;;29.20;22.40;;;;;;5115133;28;20032;-74
2022/04/29 08:51:14;;;;;;;7.18;3.40;;;29.70;21.70;;;;;;5114513;28;20043;-77
2022/04/29 08:53:41;;;;;;;9.23;3.20;;;30.10;20.60;;;;;;5114085;28;20107;-76
2022/04/29 08:58:54;;;;;;;7.78;3.35;;;30.60;20.20;;;;;;5115231;28;20408;-75
2022/04/29 09:01:21;;;;;;;9.10;3.38;;;31.30;20.00;;;;;;5114325;28;20028;-76
2022/04/29 09:03:48;;;;;;;7.30;3.10;;;31.40;18.50;;;;;;5114911;28;20039;-77
2022/04/29 09:06:17;;;;;;;10.57;4.35;;;31.60;19.00;;;;;;5097329;28;20028;-76
2022/04/29 09:09:23;;;;;;;7.40;3.97;;;32.10;18.20;;;;;;5115205;27;20043;-74
2022/04/29 09:11:49;;;;;;;5.90;2.90;;;32.50;18.50;;;;;;5113951;28;20063;-74
2022/04/29 09:14:34;;;;;;;5.75;3.20;;;33.00;18.00;;;;;;5113945;28;20495;-75
2022/04/29 09:17:00;;;;;;;6.47;3.55;;;33.40;18.20;;;;;;5113892;28;20543;-74
2022/04/29 09:19:46;;;;;;;6.05;3.05;;;33.90;17.00;;;;;;5097167;28;20050;-74
2022/04/29 09:22:12;;;;;;;7.32;3.13;;;34.00;17.00;;;;;;5114135;28;20391;-76
2022/04/29 09:24:38;;;;;;;8.10;3.70;;;34.80;16.40;;;;;;5114590;28;20031;-74
2022/04/29 09:27:05;;;;;;;5.60;3.13;;;35.20;16.30;;;;;;5113813;28;20053;-74
2022/04/29 09:29:41;;;;;;;6.95;3.40;;;35.40;15.40;;;;;;5114049;28;20071;-75
2022/04/29 09:32:08;;;;;;;6.10;3.67;;;35.80;15.30;;;;;;5096604;28;20027;-73
2022/04/29 09:34:54;;;;;;;5.82;3.60;;;36.20;15.00;;;;;;5115335;28;20046;-76
2022/04/29 09:39:26;;;;;;;;;;;36.80;15.30;;;;;;5114099;28;20076;-76
2022/04/29 09:40:38;;;;;;;6.63;3.50;;;36.60;16.30;;;;;;5114073;28;19973;-74
2022/04/29 09:43:04;;;;;;;5.70;3.03;;;36.80;14.30;;;;;;5114001;28;20101;-73
2022/04/29 09:45:32;;;;;;;4.82;3.00;;;36.70;14.90;;;;;;5114733;28;20042;-76
2022/04/29 09:47:59;;;;;;;6.13;3.58;;;37.40;14.50;;;;;;5113807;28;20035;-73
2022/04/29 09:51:04;;;;;;;6.88;2.88;;;37.80;14.10;;;;;;5096274;28;20039;-75
2022/04/29 09:53:30;;;;;;;5.03;2.85;;;38.40;14.20;;;;;;5112865;28;20032;-75
2022/04/29 09:56:15;;;;;;;6.90;2.80;;;38.70;13.20;;;;;;5114602;28;20457;-75
2022/04/29 09:58:42;;;;;;;6.65;3.15;;;39.20;13.30;;;;;;5113751;28;20031;-76
2022/04/29 10:01:10;;;;;;;7.72;4.10;;;39.60;12.60;;;;;;5113217;28;20085;-74
2022/04/29 10:03:36;;;;;;;6.63;3.72;;;39.70;11.90;;;;;;5113503;28;20063;-74
2022/04/29 10:06:04;;;;;;;5.85;3.35;;;39.70;12.30;;;;;;5113110;28;20118;-76
2022/04/29 10:08:32;;;;;;;6.85;3.10;;;39.20;12.20;;;;;;5112588;28;20118;-74
2022/04/29 10:11:00;;;;;;;6.38;3.03;;;38.40;13.00;;;;;;5112956;28;20050;-76
2022/04/29 10:13:27;;;;;;;6.75;3.10;;;39.10;12.60;;;;;;5113408;28;20032;-74
2022/04/29 10:15:54;;;;;;;5.65;3.03;;;39.50;12.10;;;;;;5112941;28;20032;-74
2022/04/29 10:21:25;;;;;;;8.52;3.33;;;39.50;12.20;;;;;;5113059;28;20040;-75
2022/04/29 10:23:51;;;;;;;5.95;3.33;;;40.00;12.30;;;;;;5112367;28;20043;-74
2022/04/29 10:26:20;;;;;;;5.68;2.90;;;40.90;12.10;;;;;;5113961;28;20031;-74
2022/04/29 10:28:48;;;;;;;5.57;3.25;;;40.80;11.40;;;;;;5112938;28;20142;-74
2022/04/29 10:31:33;;;;;;;5.30;3.20;;;40.40;11.30;;;;;;5112586;28;20061;-76
2022/04/29 10:34:36;;;;;;;6.40;2.88;;;39.80;12.00;;;;;;5112816;28;20118;-75
2022/04/29 10:37:30;;;;;;;8.13;3.17;;;37.60;13.20;;;;;;5113629;28;20459;-73
2022/04/29 10:40:15;;;;;;;5.45;3.05;;;37.90;13.30;;;;;;5111928;28;20388;-74
2022/04/29 10:43:21;;;;;;;5.15;2.90;;;38.20;13.40;;;;;;5112689;28;20523;-76
2022/04/29 10:46:08;;;;;;;13.25;3.17;;;36.90;13.10;;;;;;5095372;28;20027;-73
2022/04/29 10:48:37;;;;;;;7.93;3.50;;;35.20;14.70;;;;;;5104890;28;20086;-74
2022/04/29 10:52:02;;;;;;;6.35;3.45;;;33.90;15.40;;;;;;5084722;28;20036;-74
2022/04/29 10:54:47;;;;;;;5.90;3.35;;;33.90;15.70;;;;;;5095201;28;20127;-74
2022/04/29 10:57:14;;;;;;;6.37;2.73;;;35.70;14.60;;;;;;5103447;28;20491;-75
2022/04/29 11:00:10;;;;;;;7.90;3.17;;;34.90;14.70;;;;;;5077405;28;20039;-74
2022/04/29 11:02:36;;;;;;;6.40;2.85;;;33.80;15.60;;;;;;5107888;28;20028;-75
2022/04/29 11:05:04;;;;;;;6.00;2.80;;;32.80;16.10;;;;;;5074674;28;20028;-75
2022/04/29 11:07:50;;;;;;;6.88;2.85;;;31.90;16.50;;;;;;5091778;28;20028;-75
2022/04/29 11:10:17;;;;;;;5.00;2.72;;;31.10;17.90;;;;;;5088607;28;20036;-73
2022/04/29 11:13:13;;;;;;;6.80;2.78;;;30.40;18.20;;;;;;5112230;28;20039;-74
2022/04/29 11:16:19;;;;;;;9.10;3.20;;;29.70;18.50;;;;;;5112936;28;20407;-73
2022/04/29 11:19:26;;;;;;;7.68;3.38;;;29.10;19.20;;;;;;5113698;28;20070;-75
2022/04/29 11:24:52;;;;;;;7.10;3.55;;;28.10;20.10;;;;;;5105654;28;20043;-75
2022/04/29 11:27:37;;;;;;;7.75;3.10;;;28.00;20.80;;;;;;5111900;28;20038;-75
2022/04/29 11:30:05;;;;;;;5.80;3.15;;;28.70;20.00;;;;;;5111772;28;20059;-75
2022/04/29 11:32:31;;;;;;;6.53;2.85;;;30.60;18.70;;;;;;5111383;28;20036;-74
2022/04/29 11:35:00;;;;;;;6.78;2.78;;;30.40;18.30;;;;;;5112004;28;20157;-75
2022/04/29 11:37:47;;;;;;;5.78;2.78;;;30.20;18.60;;;;;;5110994;28;20061;-75
2022/04/29 11:40:13;;;;;;;6.20;2.88;;;31.50;18.20;;;;;;5110328;28;20571;-75
2022/04/29 11:42:50;;;;;;;5.85;2.53;;;34.40;16.70;;;;;;5113167;28;20059;-75
2022/04/29 11:45:16;;;;;;;7.32;3.15;;;36.60;14.50;;;;;;5108884;28;20032;-77
2022/04/29 11:47:42;;;;;;;7.65;2.65;;;38.40;13.60;;;;;;5094064;28;20085;-74
2022/04/29 11:50:09;;;;;;;7.43;3.30;;;39.80;12.30;;;;;;5106259;28;20106;-74
2022/04/29 11:52:39;;;;;;;5.50;2.45;;;40.80;11.50;;;;;;5112717;28;20031;-74
2022/04/29 11:55:24;;;;;;;5.25;2.60;;;41.20;11.60;;;;;;5110368;28;20514;-73
2022/04/29 11:57:50;;;;;;;5.85;2.55;;;39.20;13.00;;;;;;5111497;28;20031;-75
2022/04/29 12:00:25;;;;;;;4.88;2.50;;;38.10;13.00;;;;;;5112815;28;20038;-74
2022/04/29 12:02:53;;;;;;;5.77;2.87;;;36.70;13.20;;;;;;5111803;28;20030;-75
2022/04/29 12:05:38;;;;;;;8.02;3.25;;;35.10;14.30;;;;;;5111083;28;20464;-74
2022/04/29 12:08:05;;;;;;;6.65;2.83;;;35.30;14.70;;;;;;5112762;28;20092;-74
2022/04/29 12:10:32;;;;;;;6.88;2.85;;;34.80;14.60;;;;;;5111480;28;20042;-76
2022/04/29 12:13:19;;;;;;;5.53;2.90;;;35.90;14.10;;;;;;5111517;28;20035;-75
2022/04/29 12:15:46;;;;;;;6.10;2.70;;;37.70;13.50;;;;;;5111127;28;20035;-75
2022/04/29 12:18:15;;;;;;;4.63;2.40;;;38.40;12.80;;;;;;5111623;28;20034;-74
2022/04/29 12:20:44;;;;;;;7.43;2.97;;;40.10;12.00;;;;;;5112231;28;20032;-76
2022/04/29 12:23:33;;;;;;;6.72;2.80;;;39.70;12.00;;;;;;5094747;28;20429;-74
2022/04/29 12:26:19;;;;;;;13.70;3.33;;;38.10;12.30;;;;;;5111291;28;20057;-74
2022/04/29 12:29:10;;;;;;;7.30;3.72;;;36.10;13.50;;;;;;5111285;28;20044;-74
2022/04/29 12:37:09;;;;;;;4.90;2.97;;;35.00;13.80;;;;;;5112038;28;20515;-75
2022/04/29 12:40:03;;;;;;;6.60;2.70;;;34.80;13.70;;;;;;5093351;28;20050;-74
2022/04/29 12:42:29;;;;;;;7.40;2.40;;;37.70;12.40;;;;;;5112272;28;20039;-74
2022/04/29 12:45:04;;;;;;;7.88;3.47;;;39.70;11.70;;;;;;5112610;28;20032;-74
2022/04/29 12:47:52;;;;;;;11.27;3.72;;;41.30;10.50;;;;;;5094115;28;20060;-73
2022/04/29 12:53:29;;;;;;;5.72;2.63;;;41.70;9.30;;;;;;5115285;28;20415;-76
2022/04/29 12:55:56;;;;;;;5.22;2.70;;;39.00;11.70;;;;;;5113606;28;20040;-73
2022/04/29 12:58:26;;;;;;;7.88;2.40;;;37.00;12.60;;;;;;5116359;28;20024;-75
2022/04/29 13:00:52;;;;;;;7.53;2.30;;;35.40;13.10;;;;;;5114436;28;20042;-73
2022/04/29 13:03:37;;;;;;;6.68;2.65;;;36.30;13.20;;;;;;5114707;28;20232;-76
2022/04/29 13:06:03;;;;;;;8.38;2.97;;;34.90;13.20;;;;;;5114264;28;20031;-73
2022/04/29 13:08:30;;;;;;;7.97;2.65;;;33.60;14.00;;;;;;5116145;28;20080;-74
2022/04/29 13:10:59;;;;;;;6.53;3.40;;;32.70;14.90;;;;;;5113279;28;20043;-74
2022/04/29 13:13:28;;;;;;;6.85;2.70;;;31.70;15.20;;;;;;5114549;28;20075;-74
2022/04/29 13:15:55;;;;;;;6.10;2.53;;;31.10;15.80;;;;;;5114217;28;20142;-74
2022/04/29 13:18:25;;;;;;;10.10;3.13;;;30.80;16.20;;;;;;5097483;28;20380;-75
2022/04/29 13:20:52;;;;;;;6.18;2.63;;;30.30;16.20;;;;;;5097643;28;20081;-75
2022/04/29 13:23:18;;;;;;;6.13;3.10;;;29.90;16.50;;;;;;5115720;28;20042;-75
2022/04/29 13:25:45;;;;;;;7.53;3.05;;;29.90;16.60;;;;;;5112942;28;20066;-75
2022/04/29 13:28:11;;;;;;;5.78;2.83;;;31.00;16.60;;;;;;5097026;28;20062;-74
2022/04/29 13:30:39;;;;;;;5.00;2.70;;;33.90;14.90;;;;;;5113779;28;20032;-74
2022/04/29 13:33:06;;;;;;;9.65;2.53;;;36.40;13.20;;;;;;5114199;28;20050;-73
2022/04/29 13:35:32;;;;;;;4.97;2.30;;;38.20;12.30;;;;;;5114968;28;20085;-75
2022/04/29 13:37:59;;;;;;;5.50;2.75;;;39.70;10.50;;;;;;5113889;28;20452;-74